Time;durP1;ratioP1;P1;durP2;ratioP2;P2;SDS_P1;SDS_P2;PMS_P1;PMS_P2;Temp;Humidity;BMP_temperature;BMP_pressure;BME280_temperature;BME280_humidity;BME280_pressure;Samples;Min_cycle;Max_cycle;Signal;HPM_P1;HPM_P2
2021/04/26 00:01:55;;;;;;;14.8;9.6;;;;;;;-1.73;81.28809;98991.7;;;;
2021/04/26 00:11:51;;;;;;;17.5;10.9;;;;;;;-1.84;81.4209;98987.13;;;;
2021/04/26 00:21:48;;;;;;;15.3;10.6;;;;;;;-1.95;81.8584;98997.61;;;;
2021/04/26 00:31:46;;;;;;;16.3;10.6;;;;;;;-2.1;81.97266;98996.11;;;;
2021/04/26 00:41:43;;;;;;;15.8;9.1;;;;;;;-2.21;82.7168;98994.16;;;;
2021/04/26 00:51:40;;;;;;;17.6;11.3;;;;;;;-2.26;83.06738;99004.58;;;;
2021/04/26 01:01:37;;;;;;;18.3;10;;;;;;;-2.31;84.22559;98995.66;;;;
2021/04/26 01:11:35;;;;;;;13.5;10.9;;;;;;;-2.15;84.80566;99003.86;;;;
2021/04/26 01:21:32;;;;;;;17.2;10.2;;;;;;;-1.86;85.04688;98988.38;;;;
2021/04/26 01:31:29;;;;;;;19.2;11.5;;;;;;;-1.51;83.90332;98981.52;;;;
2021/04/26 01:41:27;;;;;;;14.4;10.8;;;;;;;-1.34;85.58984;98974.61;;;;
2021/04/26 01:51:24;;;;;;;18.9;13.5;;;;;;;-1.2;84.18457;98970.78;;;;
2021/04/26 02:11:19;;;;;;;17.2;12.9;;;;;;;-1.2;84.63379;98960.2;;;;
2021/04/26 02:21:16;;;;;;;16.1;12;;;;;;;-1.29;83.70703;98944.88;;;;
2021/04/26 02:31:14;;;;;;;21.1;12.4;;;;;;;-1.33;84.91309;98947.16;;;;
2021/04/26 02:41:14;;;;;;;19.4;11;;;;;;;-1.42;84.18359;98945.83;;;;
2021/04/26 02:51:10;;;;;;;18.8;12.4;;;;;;;-1.57;85.26953;98945.41;;;;
2021/04/26 03:01:06;;;;;;;14.3;12.2;;;;;;;-1.54;85.73438;98942.32;;;;
2021/04/26 03:11:03;;;;;;;21.7;12;;;;;;;-1.63;85.47559;98943.63;;;;
2021/04/26 03:21:01;;;;;;;16.2;12;;;;;;;-1.75;86.20703;98953.32;;;;
2021/04/26 03:30:58;;;;;;;20.1;11.7;;;;;;;-1.97;86.41309;98954.75;;;;
2021/04/26 03:40:57;;;;;;;18.6;11.7;;;;;;;-2.01;87.49805;98967.58;;;;
2021/04/26 03:50:53;;;;;;;16.5;12.5;;;;;;;-1.94;88.5918;98959.63;;;;
2021/04/26 04:00:50;;;;;;;24.9;14.1;;;;;;;-1.79;90.4707;98965.34;;;;
2021/04/26 04:10:47;;;;;;;25.2;13.9;;;;;;;-1.4;90.58691;98975.5;;;;
2021/04/26 04:20:44;;;;;;;19.2;15.5;;;;;;;-0.77;88.96875;98978.58;;;;
2021/04/26 04:30:42;;;;;;;17.8;13.6;;;;;;;-0.16;85.41016;98994.14;;;;
2021/04/26 04:40:39;;;;;;;17.3;12.3;;;;;;;0.19;83.50195;98985.41;;;;
2021/04/26 04:50:37;;;;;;;20.1;15.3;;;;;;;0.55;81.92188;99008.23;;;;
2021/04/26 05:00:34;;;;;;;26;18.8;;;;;;;0.91;80.79297;99016.69;;;;
2021/04/26 05:10:32;;;;;;;26.1;17.8;;;;;;;1.21;80.39453;99005.88;;;;
2021/04/26 05:20:30;;;;;;;23.3;18.4;;;;;;;1.65;78.18066;99014.1;;;;
2021/04/26 05:30:30;;;;;;;30.5;20.7;;;;;;;1.97;76.58008;99009.88;;;;
2021/04/26 05:40:25;;;;;;;34;20.7;;;;;;;1.88;77.06152;99011.3;;;;
2021/04/26 05:50:23;;;;;;;28.4;19.3;;;;;;;2.13;76.35449;99001.08;;;;
2021/04/26 06:00:21;;;;;;;31.5;21.8;;;;;;;2.6;75.26465;98990.88;;;;
2021/04/26 06:10:18;;;;;;;33.7;25;;;;;;;2.84;71.29102;99005.56;;;;
2021/04/26 06:20:16;;;;;;;32.8;21.6;;;;;;;3.11;69.80176;98999.48;;;;
2021/04/26 06:30:14;;;;;;;19.4;16.9;;;;;;;3.33;65.95703;98997.61;;;;
2021/04/26 06:40:12;;;;;;;22.3;17.2;;;;;;;3.82;66.02148;98985.81;;;;
2021/04/26 06:50:11;;;;;;;15;13;;;;;;;4.7;59.83008;98986.95;;;;
2021/04/26 07:00:12;;;;;;;16.6;12.7;;;;;;;4.47;59.84277;98990.04;;;;
2021/04/26 07:10:06;;;;;;;25.4;11.4;;;;;;;4.53;57.53613;98972.98;;;;
2021/04/26 07:20:04;;;;;;;14.6;8.2;;;;;;;4.85;55.10352;98987.04;;;;
2021/04/26 07:30:02;;;;;;;17.5;9.6;;;;;;;5.03;51.63867;98973.2;;;;
2021/04/26 07:40:00;;;;;;;10.9;8;;;;;;;5.42;51.49316;98994.16;;;;
2021/04/26 07:49:58;;;;;;;17.4;7.3;;;;;;;5.62;50.05664;98977.38;;;;
2021/04/26 07:59:57;;;;;;;8.1;5.7;;;;;;;6.09;48.99609;98975.28;;;;
2021/04/26 08:09:55;;;;;;;13.9;7.7;;;;;;;6.8;45.6582;98967.12;;;;
2021/04/26 08:19:53;;;;;;;12;5.9;;;;;;;6.36;45.99609;98978.46;;;;
2021/04/26 08:29:51;;;;;;;11.9;7.9;;;;;;;6.46;46.41211;98973.09;;;;
2021/04/26 08:39:50;;;;;;;8.5;5.9;;;;;;;7.03;44.91504;98964.61;;;;
2021/04/26 08:49:48;;;;;;;13.4;7.9;;;;;;;6.67;45.37402;98968.48;;;;
2021/04/26 08:59:47;;;;;;;12.9;7.2;;;;;;;7.23;44.2793;98962.89;;;;
2021/04/26 09:09:45;;;;;;;10.9;6.8;;;;;;;7.32;43.89355;98969.3;;;;
2021/04/26 09:19:43;;;;;;;10.3;5.3;;;;;;;7.04;42.74609;98968.91;;;;
2021/04/26 09:29:42;;;;;;;7.6;3.7;;;;;;;7.72;42.29297;98960.17;;;;
2021/04/26 09:39:40;;;;;;;9.5;5.3;;;;;;;7.69;43.20703;98942.77;;;;
2021/04/26 09:49:39;;;;;;;10.9;4.4;;;;;;;7.96;42.73535;98953.81;;;;
2021/04/26 09:59:38;;;;;;;7.7;3.6;;;;;;;7.81;39.95605;98937.83;;;;
2021/04/26 10:09:37;;;;;;;8.1;3.8;;;;;;;8.48;40.29004;98936.98;;;;
2021/04/26 10:19:34;;;;;;;6.4;4;;;;;;;9.34;37.82227;98935.91;;;;
2021/04/26 10:29:34;;;;;;;5.4;3.3;;;;;;;8.75;38.94043;98938.28;;;;
2021/04/26 10:39:32;;;;;;;4.4;2.2;;;;;;;9.42;38.05664;98926.38;;;;
2021/04/26 10:49:30;;;;;;;4.2;2.1;;;;;;;9.46;36.6709;98912.06;;;;
2021/04/26 10:59:29;;;;;;;5.5;2.8;;;;;;;9.62;38.0625;98907.23;;;;
2021/04/26 11:09:28;;;;;;;6.2;2.8;;;;;;;8.88;36.84961;98903.47;;;;
2021/04/26 11:19:26;;;;;;;8.2;3;;;;;;;8.61;37.56445;98883.66;;;;
2021/04/26 11:29:25;;;;;;;7;3.7;;;;;;;9.92;40.81152;98876.34;;;;
2021/04/26 11:39:24;;;;;;;18.2;3.8;;;;;;;9.29;38.4668;98886.77;;;;
2021/04/26 11:49:22;;;;;;;8.4;3.6;;;;;;;9.46;37.86621;98870.91;;;;
2021/04/26 11:59:21;;;;;;;5.7;3;;;;;;;9.89;39.97754;98850.8;;;;
2021/04/26 12:09:20;;;;;;;5.3;2.3;;;;;;;10.07;36.41602;98841.86;;;;
2021/04/26 12:19:19;;;;;;;8;3.6;;;;;;;10.1;35.70996;98835.07;;;;
2021/04/26 12:29:17;;;;;;;7.3;2.6;;;;;;;10.39;35.27734;98819.45;;;;
2021/04/26 12:39:16;;;;;;;5.2;2.3;;;;;;;10.55;35.73633;98803.79;;;;
2021/04/26 12:49:20;;;;;;;7.2;2.8;;;;;;;10.16;35.86328;98787.34;;;;
2021/04/26 12:59:14;;;;;;;6.8;3.2;;;;;;;9.66;35.27441;98757.55;;;;
2021/04/26 13:09:13;;;;;;;7.1;2.7;;;;;;;9.63;35.7168;98744.7;;;;
2021/04/26 13:19:12;;;;;;;6;3.1;;;;;;;9.81;36.42676;98729.56;;;;
2021/04/26 13:29:14;;;;;;;5.7;2.8;;;;;;;9.83;35.14063;98703.13;;;;
2021/04/26 13:39:14;;;;;;;4.3;2.8;;;;;;;10.13;33.57813;98701.73;;;;
2021/04/26 13:49:08;;;;;;;9.1;2.9;;;;;;;10.11;35.88184;98702.02;;;;
2021/04/26 13:59:07;;;;;;;6.8;2.2;;;;;;;10.49;34.1543;98686.41;;;;
2021/04/26 14:09:05;;;;;;;8.8;3.6;;;;;;;10.4;32.25;98688.24;;;;
2021/04/26 14:19:04;;;;;;;7.6;3;;;;;;;10.58;33.24707;98668.43;;;;
2021/04/26 14:29:03;;;;;;;5.5;3;;;;;;;10.4;32.86816;98654.02;;;;
2021/04/26 14:39:02;;;;;;;3.8;2.4;;;;;;;10.63;32.85059;98648.63;;;;
2021/04/26 14:49:00;;;;;;;5.4;2.7;;;;;;;10.45;32.17383;98642.3;;;;
2021/04/26 14:58:59;;;;;;;4.5;2.4;;;;;;;10.71;32.36523;98631.73;;;;
2021/04/26 15:08:58;;;;;;;4.5;3.3;;;;;;;10.58;31.7041;98615.34;;;;
2021/04/26 15:18:57;;;;;;;6.5;2.7;;;;;;;13.26;27.82422;98614.77;;;;
2021/04/26 15:28:56;;;;;;;7;3.1;;;;;;;14.43;26.68652;98598.46;;;;
2021/04/26 15:38:55;;;;;;;5.7;2.6;;;;;;;15.25;24.08496;98605.6;;;;
2021/04/26 15:48:54;;;;;;;5.4;2.6;;;;;;;14.68;24.73535;98596.65;;;;
2021/04/26 15:58:53;;;;;;;3.8;2.2;;;;;;;15.99;25.01855;98588.2;;;;
2021/04/26 16:08:53;;;;;;;5.5;3.1;;;;;;;16.06;23.10742;98588.41;;;;
2021/04/26 16:18:52;;;;;;;5.6;3.6;;;;;;;12.99;26.3916;98578.03;;;;
2021/04/26 16:28:52;;;;;;;12.1;7.2;;;;;;;10.55;28.95703;98566.64;;;;
2021/04/26 16:38:54;;;;;;;21.8;12;;;;;;;9.5;30.08496;98557.16;;;;
2021/04/26 16:48:49;;;;;;;11.6;7.2;;;;;;;8.6;31.02441;98549.75;;;;
2021/04/26 16:58:48;;;;;;;6.8;4.2;;;;;;;8.18;32.09766;98553.36;;;;
2021/04/26 17:08:46;;;;;;;6.6;4.9;;;;;;;7.99;33.07227;98550.68;;;;
2021/04/26 17:18:47;;;;;;;36;21.8;;;;;;;7.68;34.0127;98554.08;;;;
2021/04/26 17:28:43;;;;;;;11.8;6.9;;;;;;;7.07;35.48438;98555.66;;;;
2021/04/26 17:38:41;;;;;;;49.6;38.6;;;;;;;6.52;39.13574;98564.25;;;;
2021/04/26 17:48:40;;;;;;;11.2;6.1;;;;;;;5.88;41.86426;98557.23;;;;
2021/04/26 17:58:38;;;;;;;20.2;12.1;;;;;;;5.4;42.13281;98568.69;;;;
2021/04/26 18:08:36;;;;;;;59.9;46.4;;;;;;;4.74;43.83301;98584.11;;;;
2021/04/26 18:18:34;;;;;;;12.3;9.5;;;;;;;4.31;46.02344;98593.47;;;;
2021/04/26 18:28:32;;;;;;;19;9.1;;;;;;;4.01;47.09082;98595.05;;;;
2021/04/26 18:38:30;;;;;;;10.4;6.2;;;;;;;3.61;47.49316;98604.83;;;;
2021/04/26 18:48:28;;;;;;;11.1;8.2;;;;;;;3.28;48.08398;98611.34;;;;
2021/04/26 18:58:26;;;;;;;12.7;8.6;;;;;;;3.04;49.62207;98613.63;;;;
2021/04/26 19:08:23;;;;;;;20.9;12.5;;;;;;;2.9;50.4668;98615.94;;;;
2021/04/26 19:18:21;;;;;;;22.9;15;;;;;;;2.65;53.32617;98633.58;;;;
2021/04/26 19:28:19;;;;;;;11.6;7.5;;;;;;;2.47;52.74707;98637.42;;;;
2021/04/26 19:38:17;;;;;;;15.9;11.2;;;;;;;2.43;54.19141;98633.7;;;;
2021/04/26 19:48:14;;;;;;;10.5;9.2;;;;;;;2.52;54.29199;98624.19;;;;
2021/04/26 19:58:12;;;;;;;15.9;10.2;;;;;;;2.52;53.5;98630.31;;;;
2021/04/26 20:08:12;;;;;;;31.4;13.7;;;;;;;2.27;54.69434;98622.11;;;;
2021/04/26 20:18:07;;;;;;;20;15.7;;;;;;;1.94;55.57617;98619.69;;;;
2021/04/26 20:28:05;;;;;;;30.7;18.1;;;;;;;1.8;56.77148;98613.97;;;;
2021/04/26 20:38:06;;;;;;;36;26.4;;;;;;;1.54;57.98145;98606.75;;;;
2021/04/26 20:48:00;;;;;;;24.6;18.7;;;;;;;1.67;57.09668;98600.25;;;;
2021/04/26 20:57:58;;;;;;;29.3;20.5;;;;;;;1.79;57.09082;98619.52;;;;
2021/04/26 21:07:56;;;;;;;30.6;20.8;;;;;;;1.7;57.79004;98610.39;;;;
2021/04/26 21:17:53;;;;;;;25.1;17.1;;;;;;;1.87;57.59277;98611.91;;;;
2021/04/26 21:27:51;;;;;;;39.1;28.9;;;;;;;2.02;56.39844;98616.55;;;;
2021/04/26 21:37:48;;;;;;;35.6;29.1;;;;;;;2;56.80859;98622.14;;;;
2021/04/26 21:47:46;;;;;;;47;25.6;;;;;;;1.98;56.70605;98624.22;;;;
2021/04/26 21:57:44;;;;;;;33.9;27.9;;;;;;;2.03;58.14746;98632.27;;;;
2021/04/26 22:07:41;;;;;;;34.2;24.5;;;;;;;2.09;65.20996;98632.3;;;;
2021/04/26 22:17:39;;;;;;;42;30.5;;;;;;;2.08;66.24219;98631.52;;;;
2021/04/26 22:27:37;;;;;;;41.6;30.4;;;;;;;2.16;66.50977;98631.05;;;;
2021/04/26 22:37:34;;;;;;;28.4;22.3;;;;;;;2.23;62.83203;98622.86;;;;
2021/04/26 22:47:32;;;;;;;21;12.6;;;;;;;2.37;61.56348;98619.53;;;;
2021/04/26 22:57:30;;;;;;;15.5;12.8;;;;;;;2.45;61.29883;98616.42;;;;
2021/04/26 23:07:28;;;;;;;23.9;20.9;;;;;;;2.39;64.33398;98616.64;;;;
2021/04/26 23:17:25;;;;;;;26.5;19.1;;;;;;;2.35;63.72852;98616.34;;;;
2021/04/26 23:27:23;;;;;;;26.9;19;;;;;;;2.45;62.84277;98618.27;;;;
2021/04/26 23:37:21;;;;;;;28.6;21.5;;;;;;;2.5;66.17188;98610.31;;;;
2021/04/26 23:47:19;;;;;;;23.5;17.1;;;;;;;2.41;66.81543;98587.92;;;;
2021/04/26 23:57:16;;;;;;;22.7;14.9;;;;;;;2.43;64.5752;98581.28;;;;
